Time;durP1;ratioP1;P1;durP2;ratioP2;P2;SDS_P1;SDS_P2;PMS_P1;PMS_P2;Temp;Humidity;BMP_temperature;BMP_pressure;BME280_temperature;BME280_humidity;BME280_pressure;Samples;Min_cycle;Max_cycle;Signal;HPM_P1;HPM_P2
2021/12/09 00:05:44;;;;;;;9.60;6.90;;;;;;;20.49;48.47;99581.16;20483993;28;97652;-77
2021/12/09 00:15:44;;;;;;;9.50;6.38;;;;;;;20.47;48.77;99555.00;20488425;28;97076;-78
2021/12/09 00:25:45;;;;;;;9.98;7.03;;;;;;;20.43;48.65;99553.63;20474712;28;100379;-78
2021/12/09 00:35:52;;;;;;;11.50;7.07;;;;;;;20.42;48.72;99556.38;20489834;28;97937;-78
2021/12/09 00:45:52;;;;;;;9.57;6.63;;;;;;;20.40;48.54;99556.50;20489723;28;99021;-78
2021/12/09 00:55:54;;;;;;;10.45;6.88;;;;;;;20.35;48.63;99523.69;20471308;28;97636;-78
2021/12/09 01:05:54;;;;;;;8.98;6.47;;;;;;;20.33;48.77;99526.47;20488493;28;97435;-78
2021/12/09 01:15:55;;;;;;;10.73;6.90;;;;;;;20.30;48.42;99513.59;20492623;28;96940;-77
2021/12/09 01:26:01;;;;;;;8.95;6.70;;;;;;;20.26;48.57;99534.06;20468456;28;97506;-77
2021/12/09 01:36:03;;;;;;;10.10;6.90;;;;;;;20.25;48.67;99510.53;20475633;28;98483;-78
2021/12/09 01:46:06;;;;;;;9.60;6.43;;;;;;;20.21;48.45;99499.44;20465633;28;98930;-77
2021/12/09 01:56:08;;;;;;;;;;;;;;;20.18;48.42;99469.97;20482776;28;97568;-77
2021/12/09 02:06:09;;;;;;;9.55;6.18;;;;;;;20.16;48.28;99467.47;20498088;28;97081;-77
2021/12/09 02:16:10;;;;;;;10.98;7.10;;;;;;;20.15;48.34;99486.84;20491060;28;97079;-78
2021/12/09 02:26:12;;;;;;;10.95;6.88;;;;;;;20.12;48.43;99442.44;20468130;28;101525;-77
2021/12/09 02:36:12;;;;;;;9.23;6.65;;;;;;;20.11;48.65;99470.50;20459027;28;97178;-78
2021/12/09 02:46:16;;;;;;;10.98;6.93;;;;;;;20.08;48.42;99446.28;20487490;28;97546;-77
2021/12/09 02:56:20;;;;;;;9.63;6.30;;;;;;;20.05;48.90;99439.50;20470025;28;97220;-77
2021/12/09 03:06:28;;;;;;;9.70;6.40;;;;;;;20.04;48.53;99453.59;20480799;28;97951;-77
2021/12/09 03:16:29;;;;;;;9.23;6.65;;;;;;;20.01;48.60;99422.34;20474548;28;97969;-78
2021/12/09 03:26:34;;;;;;;8.40;6.53;;;;;;;20.00;48.52;99426.75;20467171;28;101373;-78
2021/12/09 03:36:34;;;;;;;8.35;5.95;;;;;;;19.98;48.60;99433.13;20474835;28;97013;-76
2021/12/09 03:46:36;;;;;;;8.88;5.93;;;;;;;19.95;48.67;99396.63;20488354;28;98390;-77
2021/12/09 03:56:37;;;;;;;8.15;5.82;;;;;;;19.95;48.61;99422.91;20490045;28;97192;-77
2021/12/09 04:06:38;;;;;;;8.85;6.22;;;;;;;19.92;48.94;99433.66;20500153;28;99863;-78
2021/12/09 04:16:39;;;;;;;7.70;5.80;;;;;;;19.93;48.68;99430.06;20508045;28;96981;-78
2021/12/09 04:26:44;;;;;;;8.75;5.80;;;;;;;19.90;48.60;99409.34;20481101;28;96900;-78
2021/12/09 04:36:46;;;;;;;9.93;5.72;;;;;;;19.86;48.37;99395.63;20465677;28;97604;-77
2021/12/09 04:46:46;;;;;;;7.85;5.68;;;;;;;19.85;48.64;99428.13;20492203;28;96916;-77
2021/12/09 04:56:47;;;;;;;7.53;5.50;;;;;;;19.82;48.69;99428.34;20478264;28;97116;-77
2021/12/09 05:06:48;;;;;;;9.27;5.72;;;;;;;19.82;48.75;99402.94;20483275;28;97210;-77
2021/12/09 05:16:53;;;;;;;7.82;5.25;;;;;;;19.89;49.09;99411.13;20473903;28;97029;-77
2021/12/09 05:26:55;;;;;;;9.40;5.38;;;;;;;20.19;48.99;99416.44;20486526;28;97248;-79
2021/12/09 05:36:56;;;;;;;22.13;5.80;;;;;;;20.39;49.99;99423.38;20496248;28;98080;-79
2021/12/09 05:46:58;;;;;;;9.93;4.95;;;;;;;20.54;49.68;99394.88;20506194;28;96820;-79
2021/12/09 05:56:58;;;;;;;10.43;5.75;;;;;;;20.67;49.37;99375.38;20475672;28;101346;-77
2021/12/09 06:07:00;;;;;;;10.05;5.22;;;;;;;20.74;49.09;99347.56;20477366;28;97348;-79
2021/12/09 06:17:01;;;;;;;10.45;5.32;;;;;;;20.78;48.86;99339.22;20479901;28;97501;-78
2021/12/09 06:27:06;;;;;;;11.73;6.53;;;;;;;20.74;47.38;99350.19;20472198;28;101303;-81
2021/12/09 06:37:08;;;;;;;8.73;5.95;;;;;;;20.88;47.85;99330.50;20479208;28;99579;-79
2021/12/09 06:47:09;;;;;;;11.95;5.55;;;;;;;20.87;46.69;99350.72;20482084;28;97217;-78
2021/12/09 06:57:09;;;;;;;15.73;8.48;;;;;;;20.54;44.41;99355.41;20517583;28;97409;-77
2021/12/09 07:07:10;;;;;;;42.25;9.02;;;;;;;20.73;44.95;99349.34;20471909;28;97667;-77
2021/12/09 07:17:11;;;;;;;25.10;7.88;;;;;;;20.64;44.25;99358.03;20485546;28;97518;-77
2021/12/09 07:27:12;;;;;;;22.73;8.07;;;;;;;20.89;44.98;99376.88;20474651;28;97251;-77
2021/12/09 07:37:15;;;;;;;16.48;6.68;;;;;;;21.00;45.14;99370.63;20493912;28;97736;-80
2021/12/09 07:47:17;;;;;;;12.40;5.90;;;;;;;21.07;45.01;99340.13;20505083;28;97147;-79
2021/12/09 07:57:19;;;;;;;11.33;5.73;;;;;;;21.18;44.88;99325.94;20488451;28;97257;-79
2021/12/09 08:07:20;;;;;;;11.20;5.95;;;;;;;21.18;44.61;99320.69;20514003;28;97038;-80
2021/12/09 08:17:45;;;;;;;11.57;6.32;;;;;;;21.16;44.27;99291.06;20513474;28;97156;-79
2021/12/09 08:27:46;;;;;;;14.45;9.48;;;;;;;21.16;44.23;99306.84;20521045;28;97307;-80
2021/12/09 08:37:47;;;;;;;16.95;9.63;;;;;;;21.17;44.36;99311.16;20531125;28;97206;-81
2021/12/09 08:47:50;;;;;;;18.88;10.60;;;;;;;21.26;45.00;99297.09;20584638;28;100307;-81
2021/12/09 08:57:51;;;;;;;13.10;9.30;;;;;;;21.30;45.49;99295.84;20581228;28;97366;-81
2021/12/09 09:07:53;;;;;;;16.10;10.55;;;;;;;21.27;45.29;99285.59;20603830;28;96707;-80
2021/12/09 09:17:55;;;;;;;12.18;8.40;;;;;;;21.31;45.49;99292.22;20587909;28;97701;-81
2021/12/09 09:27:58;;;;;;;16.40;8.93;;;;;;;21.33;45.40;99315.78;20586745;28;96788;-81
2021/12/09 09:37:58;;;;;;;;;;;;;;;21.30;45.24;99292.38;20598078;28;98095;-81
2021/12/09 09:48:22;;;;;;;12.45;8.32;;;;;;;21.28;45.35;99235.41;20582526;28;96976;-82
2021/12/09 09:58:24;;;;;;;12.73;8.07;;;;;;;21.26;44.91;99218.09;20556899;28;98562;-80
2021/12/09 10:08:25;;;;;;;11.88;7.78;;;;;;;21.27;44.96;99201.34;20590206;28;96970;-81
2021/12/09 10:18:52;;;;;;;15.07;7.95;;;;;;;21.31;44.95;99197.41;20548547;28;96950;-79
2021/12/09 10:29:06;;;;;;;17.63;8.80;;;;;;;21.26;45.02;99181.25;20572462;28;96788;-81
2021/12/09 10:39:25;;;;;;;14.95;10.00;;;;;;;21.11;44.96;99170.41;20600730;28;97230;-82
2021/12/09 10:49:25;;;;;;;17.13;10.02;;;;;;;21.11;45.19;99183.56;20575302;28;96950;-77
2021/12/09 10:59:30;;;;;;;14.50;9.90;;;;;;;21.21;47.19;99180.88;20578012;28;99011;-78
2021/12/09 11:09:31;;;;;;;14.13;9.10;;;;;;;21.29;47.09;99183.59;20589307;28;98161;-78
2021/12/09 11:19:41;;;;;;;12.30;7.97;;;;;;;21.50;47.24;99179.84;20586715;28;100498;-78
2021/12/09 11:29:49;;;;;;;14.93;9.10;;;;;;;21.36;47.31;99146.97;20586133;28;97930;-77
2021/12/09 11:39:51;;;;;;;14.20;9.60;;;;;;;21.32;47.09;99135.91;20587670;28;97111;-79
2021/12/09 11:49:53;;;;;;;18.42;10.20;;;;;;;21.30;47.10;99139.66;20609297;28;97023;-79
2021/12/09 12:41:13;;;;;;;14.70;10.30;;;;;;;21.35;46.32;99079.47;20589509;28;96780;-78
2021/12/09 12:51:22;;;;;;;14.50;9.80;;;;;;;21.37;45.86;99088.91;20570954;28;99880;-79
2021/12/09 13:01:23;;;;;;;16.05;8.98;;;;;;;21.48;46.19;99103.59;20535509;28;100263;-77
2021/12/09 13:11:42;;;;;;;15.77;9.07;;;;;;;21.51;46.59;99116.50;20558140;28;100506;-78
2021/12/09 13:21:55;;;;;;;12.05;8.10;;;;;;;21.52;46.80;99104.97;20520820;28;101677;-77
2021/12/09 13:32:11;;;;;;;11.90;7.88;;;;;;;21.53;46.50;99096.09;20549132;28;97667;-76
2021/12/09 14:02:49;;;;;;;15.70;9.18;;;;;;;21.27;44.31;99081.06;20381648;28;97236;-76
2021/12/09 14:12:57;;;;;;;15.55;8.95;;;;;;;21.43;44.78;99056.69;20353111;28;97260;-79
2021/12/09 14:22:59;;;;;;;14.55;8.57;;;;;;;21.34;43.48;99043.59;20375418;28;96986;-82
2021/12/09 14:33:00;;;;;;;22.63;7.50;;;;;;;21.57;45.30;99041.34;20383064;28;98519;-80
2021/12/09 14:43:08;;;;;;;12.60;8.00;;;;;;;21.66;46.58;99061.47;20472760;28;97583;-81
2021/12/09 14:53:10;;;;;;;14.73;7.43;;;;;;;21.72;48.02;99050.31;20483126;28;99048;-82
2021/12/09 15:03:16;;;;;;;12.17;7.47;;;;;;;21.72;47.81;99039.78;20480483;28;98118;-81
2021/12/09 15:13:18;;;;;;;13.75;7.07;;;;;;;21.83;48.45;99040.50;20465027;28;99985;-80
2021/12/09 15:23:52;;;;;;;17.17;7.67;;;;;;;21.90;49.32;99046.81;20478802;28;100336;-81
2021/12/09 15:33:52;;;;;;;13.98;7.95;;;;;;;21.94;49.65;99052.59;20476875;28;100920;-83
2021/12/09 15:43:57;;;;;;;19.00;11.55;;;;;;;21.97;49.87;99054.91;20563819;28;97820;-82
2021/12/09 15:54:03;;;;;;;22.80;11.98;;;;;;;21.98;50.11;99049.47;20585817;28;97250;-81
2021/12/09 16:04:05;;;;;;;17.13;11.73;;;;;;;22.02;50.42;99037.66;20584517;28;97432;-82
2021/12/09 16:14:14;;;;;;;22.50;15.67;;;;;;;22.05;50.63;99028.59;20582384;28;97218;-82
2021/12/09 16:24:16;;;;;;;19.48;12.93;;;;;;;21.99;49.46;99032.69;20598043;28;97940;-83
2021/12/09 16:34:16;;;;;;;20.05;11.00;;;;;;;22.01;49.21;99051.00;20578310;28;97940;-81
2021/12/09 16:44:17;;;;;;;20.95;10.80;;;;;;;21.97;49.66;99034.66;20556537;28;97911;-81
2021/12/09 16:54:26;;;;;;;17.52;9.98;;;;;;;21.99;49.71;99055.59;20559505;28;100681;-80
2021/12/09 17:04:28;;;;;;;15.63;9.20;;;;;;;21.96;49.52;99059.38;20544480;28;98750;-79
2021/12/09 17:14:31;;;;;;;15.50;8.43;;;;;;;21.93;49.07;99054.41;20533131;28;97352;-82
2021/12/09 17:24:33;;;;;;;;;;;;;;;22.00;49.42;99057.25;20550295;28;101495;-79
2021/12/09 17:34:35;;;;;;;13.00;7.60;;;;;;;22.00;49.34;99079.16;20558142;28;97452;-79
2021/12/09 17:44:37;;;;;;;11.93;7.10;;;;;;;21.99;49.58;99080.13;20570461;28;97706;-81
2021/12/09 17:54:40;;;;;;;12.07;6.90;;;;;;;21.99;49.58;99103.84;20570918;28;99287;-79
2021/12/09 18:04:41;;;;;;;11.93;6.53;;;;;;;22.06;50.03;99085.63;20516887;28;97668;-79
2021/12/09 18:14:45;;;;;;;10.65;7.40;;;;;;;22.11;51.70;99079.88;20512914;28;100517;-81
2021/12/09 18:24:48;;;;;;;16.90;7.25;;;;;;;21.99;50.83;99085.41;20544349;28;97142;-79
2021/12/09 18:34:55;;;;;;;11.20;6.25;;;;;;;21.88;50.60;99097.03;20548467;28;99667;-83
2021/12/09 18:44:55;;;;;;;9.57;5.80;;;;;;;21.77;49.47;99080.66;20570739;28;96657;-83
2021/12/09 18:54:56;;;;;;;17.85;6.43;;;;;;;21.77;50.70;99067.47;20507696;28;96969;-85
2021/12/09 19:04:56;;;;;;;12.90;6.45;;;;;;;21.69;50.95;99087.53;20508985;28;97632;-84
2021/12/09 19:14:57;;;;;;;16.33;5.78;;;;;;;21.74;50.58;99071.25;20526324;28;99412;-79
2021/12/09 19:24:58;;;;;;;11.93;5.72;;;;;;;21.77;50.88;99097.28;20536931;28;96832;-79
2021/12/09 19:34:59;;;;;;;16.38;6.45;;;;;;;21.73;51.28;99074.88;20551559;28;98106;-79
2021/12/09 19:45:00;;;;;;;13.73;5.80;;;;;;;21.69;50.85;99057.69;20586173;28;96874;-81
2021/12/09 19:55:02;;;;;;;17.95;6.50;;;;;;;21.58;51.15;99064.88;20573252;28;97721;-78
2021/12/09 20:05:07;;;;;;;11.20;5.90;;;;;;;21.51;50.57;99069.09;20543730;28;97440;-82
2021/12/09 20:15:10;;;;;;;11.02;6.10;;;;;;;21.51;50.90;99092.78;20541874;28;97494;-79
2021/12/09 20:25:17;;;;;;;11.68;6.30;;;;;;;21.48;50.65;99108.88;20556270;28;97643;-81
2021/12/09 20:35:19;;;;;;;13.23;6.20;;;;;;;21.46;51.18;99121.38;20547081;28;100784;-81
2021/12/09 20:45:23;;;;;;;9.73;6.15;;;;;;;21.39;51.10;99091.38;20581745;28;96804;-82
2021/12/09 20:55:26;;;;;;;8.18;5.78;;;;;;;21.36;51.12;99112.72;20556190;28;100293;-82
2021/12/09 21:05:27;;;;;;;7.80;5.40;;;;;;;21.31;51.26;99122.88;20546937;28;98033;-81
2021/12/09 21:15:30;;;;;;;11.57;6.00;;;;;;;21.24;51.21;99125.31;20554869;28;98199;-80
2021/12/09 21:25:30;;;;;;;9.95;5.80;;;;;;;21.22;51.79;99132.53;20563647;28;100725;-80
2021/12/09 21:35:31;;;;;;;8.73;5.82;;;;;;;21.20;51.57;99155.53;20571818;28;97364;-81
2021/12/09 21:45:33;;;;;;;8.07;5.30;;;;;;;21.15;51.57;99144.63;20567167;28;99647;-82
2021/12/09 21:55:33;;;;;;;10.00;5.65;;;;;;;21.10;51.74;99145.91;20568929;28;98326;-82
2021/12/09 22:05:36;;;;;;;6.80;4.80;;;;;;;21.06;51.90;99133.19;20544647;28;96919;-82
2021/12/09 22:15:38;;;;;;;7.10;5.47;;;;;;;21.00;51.47;99155.66;20559757;28;97275;-81
2021/12/09 22:25:39;;;;;;;6.82;5.25;;;;;;;20.98;51.45;99165.47;20558883;28;101489;-81
2021/12/09 22:35:40;;;;;;;7.00;4.90;;;;;;;20.95;51.55;99150.00;20541470;28;97939;-82
2021/12/09 22:45:41;;;;;;;7.53;4.53;;;;;;;20.90;51.51;99141.72;20566046;28;96903;-81
2021/12/09 22:55:41;;;;;;;5.80;4.60;;;;;;;20.88;51.66;99147.13;20558530;28;97913;-82
2021/12/09 23:05:46;;;;;;;7.22;4.82;;;;;;;20.83;51.32;99152.00;20532942;28;97849;-82
2021/12/09 23:15:52;;;;;;;8.88;4.97;;;;;;;20.84;51.60;99155.47;20523497;28;97923;-82
2021/12/09 23:25:55;;;;;;;6.30;4.20;;;;;;;20.74;51.37;99169.50;20519671;28;97711;-81
2021/12/09 23:35:58;;;;;;;6.57;4.00;;;;;;;20.75;51.62;99150.13;20531917;28;97380;-81
2021/12/09 23:46:00;;;;;;;10.77;4.05;;;;;;;20.71;50.98;99166.28;20556068;28;98506;-82
2021/12/09 23:56:02;;;;;;;5.75;3.85;;;;;;;20.69;51.09;99205.06;20555765;28;98594;-82
